Old Houlka, Mississippi
Current Conditions -  °F | °C
As of 1:53 AM on Thursday 23 Oct 2014 (Local Time) from KTUP Reporting Station
Clear Clear  
Wind Chill: 44°   Ceiling: Unl
Heat Index: 44°   Visibility: 10mi
Dew Point: 41°   Wind: 3mph
Humidity: 89%   Direction: 10°N
Pressure: 30.16"   Gusts: NA
Location:  34.0577°N, 89.0762°W
Report Text: KTUP 230653Z AUTO 01003KT 10SM CLR 07/05 A3016 RMK AO2 SLP212 T00670050 PWINO
Loading
Personal Weather Stations






























Interactive Weather Map
Tropical Storm Tracking
New forecast layout! Learn more

10-Day Weather Forecast

Advertisements
Track Severe Weather on mobile